Latest Weather Observations for Perth

IDW60801

Issued at 8:35 pm WST Thursday 24 July 2014 (issued every 30 minutes, with the page automatically refreshed every 10 minutes)

About weather observations | Map of weather stations | Latest weather observations for WA | Other Formats
Station Details ID: 009225 Name: PERTH METRO Lat: -31.92 Lon: 115.87 Height: 24.9 m
Data from the previous 72 hours. | See also: Recent months at Perth
Date/Time
WST
Temp
°C
App
Temp
°C
Dew
Point
Rel
Hum
%
Delta-T
°C
Wind Press
QNH
hPa
Press
MSL
hPa
Rain
since 9 am
mm
Dir
 
Spd
km/h
Gust
km/h
Spd
kts
Gust
kts
24/08:30pm 13.7 13.2 12.8 94 0.5 WSW 7 11 4 6 1021.7 - 0.2
24/08:00pm 12.8 13.4 11.9 94 0.5 WSW 0 0 0 0 1021.7 1021.7 0.2
24/07:30pm 12.3 12.6 11.0 92 0.7 CALM 0 0 0 0 1021.6 - 0.2
24/07:00pm 12.7 13.1 11.3 91 0.7 CALM 0 0 0 0 1021.7 1021.7 0.2
24/06:30pm 13.4 13.8 11.3 87 1.1 CALM 0 0 0 0 1021.6 - 0.2
24/06:00pm 14.3 14.7 11.3 82 1.6 CALM 0 0 0 0 1021.3 1021.3 0.2
24/05:30pm 15.7 15.3 11.1 74 2.5 WSW 4 7 2 4 1021.0 - 0.2
24/05:00pm 16.6 15.6 11.1 70 2.9 WSW 7 13 4 7 1020.9 1020.9 0.2
24/04:30pm 17.5 16.2 11.1 66 3.5 WSW 9 13 5 7 1020.7 - 0.2
24/04:00pm 18.1 17.2 11.2 64 3.7 WSW 7 11 4 6 1020.6 1020.6 0.2
24/03:30pm 17.8 16.6 11.6 67 3.4 WSW 9 15 5 8 1020.8 - 0.2
24/03:00pm 17.6 16.2 10.9 65 3.6 W 9 15 5 8 1020.7 1020.7 0.2
24/02:30pm 17.7 16.1 10.3 62 3.9 SW 9 15 5 8 1020.8 - 0.2
24/02:00pm 18.0 15.9 9.9 59 4.3 S 11 22 6 12 1020.9 1020.9 0.2
24/01:30pm 18.4 16.4 10.3 59 4.3 SSW 11 20 6 11 1021.0 - 0.2
24/01:00pm 18.3 17.1 10.2 59 4.3 S 7 13 4 7 1021.2 1021.2 0.2
24/12:30pm 17.9 16.4 10.5 62 4.0 S 9 13 5 7 1021.4 - 0.2
24/12:00pm 17.6 16.1 10.7 64 3.7 S 9 15 5 8 1021.9 1021.9 0.0
24/11:30am 17.5 16.7 10.9 65 3.6 S 6 9 3 5 1022.1 - 0.0
24/11:00am 16.8 15.5 11.1 69 3.1 SSE 9 15 5 8 1022.3 1022.3 0.0
24/10:30am 15.9 14.5 10.9 72 2.7 S 9 15 5 8 1022.5 - 0.0
24/10:00am 15.8 15.2 12.2 79 2.0 ESE 7 11 4 6 1022.5 1022.5 0.0
24/09:30am 14.4 14.1 12.8 90 0.9 SE 6 9 3 5 1022.3 - 0.0
24/09:00am 13.7 13.4 13.4 98 0.2 SE 7 11 4 6 1022.0 1022.0 3.2
24/08:30am 13.2 13.8 13.0 99 0.1 SSE 2 7 1 4 1021.8 - 3.2
24/08:00am 11.5 11.9 11.3 99 0.1 CALM 0 0 0 0 1021.5 1021.5 3.2
24/07:30am 10.8 11.0 10.6 99 0.1 CALM 0 0 0 0 1021.2 - 3.2
24/07:00am 10.9 11.1 10.7 99 0.1 CALM 0 2 0 1 1020.9 1020.9 3.2
24/06:30am 12.2 12.8 12.0 99 0.1 CALM 0 2 0 1 1020.7 - 3.2
24/06:00am 13.0 12.5 12.8 99 0.1 SSE 7 11 4 6 1020.4 1020.4 3.2
24/05:30am 12.3 11.6 12.1 99 0.1 SSE 7 13 4 7 1020.1 - 3.2
24/05:00am 11.1 10.6 10.9 99 0.1 ESE 4 9 2 5 1019.9 1019.9 3.2
24/04:30am 10.5 10.6 10.3 99 0.1 CALM 0 0 0 0 1019.6 - 3.0
24/04:00am 10.6 9.6 10.4 99 0.1 ENE 6 9 3 5 1019.8 1019.8 3.0
24/03:30am 10.7 9.6 10.5 99 0.1 E 7 11 4 6 1020.0 - 3.0
24/03:00am 10.1 10.1 9.9 99 0.1 CALM 0 0 0 0 1020.1 1020.1 2.4
24/02:30am 10.2 10.3 10.0 99 0.1 CALM 0 0 0 0 1020.3 - 2.4
24/02:00am 10.2 8.9 10.0 99 0.1 SSE 7 15 4 8 1020.3 1020.3 2.4
24/01:30am 8.9 8.6 8.8 99 0.0 CALM 0 0 0 0 1020.1 - 2.4
24/01:00am 8.7 8.4 8.6 99 0.0 CALM 0 0 0 0 1020.2 1020.2 2.4
24/12:30am 9.0 8.7 8.7 98 0.1 CALM 0 0 0 0 1020.2 - 2.4
24/12:00am 9.5 9.4 9.4 99 0.0 W 0 0 0 0 1020.6 1020.6 2.4
 
Date/Time
WST
Temp
°C
App
Temp
°C
Dew
Point
Rel
Hum
%
Delta-T
°C
Wind Press
QNH
hPa
Press
MSL
hPa
Rain
since 9 am
mm
Dir
 
Spd
km/h
Gust
km/h
Spd
kts
Gust
kts
23/11:30pm 9.7 9.6 9.6 99 0.0 CALM 0 0 0 0 1020.9 - 2.4
23/11:00pm 9.5 9.0 9.2 98 0.1 W 2 6 1 3 1021.0 1021.0 2.4
23/10:30pm 9.6 9.5 9.3 98 0.1 CALM 0 6 0 3 1021.2 - 2.4
23/10:00pm 9.4 8.5 9.1 98 0.1 W 4 7 2 4 1021.3 1021.3 2.4
23/09:30pm 9.4 9.2 8.9 97 0.2 CALM 0 0 0 0 1021.4 - 2.4
23/09:00pm 9.4 9.2 8.9 97 0.2 CALM 0 0 0 0 1021.2 1021.2 2.4
23/08:30pm 9.4 9.1 8.8 96 0.3 CALM 0 0 0 0 1021.2 - 2.4
23/08:00pm 9.9 9.8 9.3 96 0.3 CALM 0 6 0 3 1021.3 1021.3 2.4
23/07:30pm 10.1 10.0 9.3 95 0.4 CALM 0 0 0 0 1021.1 - 2.4
23/07:00pm 11.0 11.0 9.9 93 0.6 CALM 0 0 0 0 1021.1 1021.1 2.4
23/06:30pm 11.5 11.6 10.1 91 0.7 CALM 0 0 0 0 1020.9 - 2.4
23/06:00pm 12.4 12.1 10.0 85 1.2 W 2 6 1 3 1020.6 1020.6 2.4
23/05:30pm 13.6 12.3 9.8 78 2.0 W 7 13 4 7 1020.7 - 2.4
23/05:00pm 14.4 12.6 9.6 73 2.5 W 9 17 5 9 1020.6 1020.6 2.4
23/04:30pm 15.0 13.5 10.4 74 2.4 WNW 9 17 5 9 1020.5 - 2.4
23/04:00pm 14.8 13.3 10.4 75 2.3 W 9 17 5 9 1020.4 1020.4 2.4
23/03:30pm 14.1 13.0 12.0 87 1.1 W 9 22 5 12 1020.4 - 2.4
23/03:00pm 13.2 11.8 10.9 86 1.2 WSW 9 20 5 11 1020.6 1020.6 2.4
23/02:30pm 15.1 13.9 10.3 73 2.5 W 7 20 4 11 1020.5 - 0.0
23/02:00pm 15.5 13.4 9.8 69 3.0 NNW 11 19 6 10 1020.4 1020.4 0.0
23/01:30pm 15.4 13.9 10.6 73 2.5 NW 9 19 5 10 1020.7 - 0.0
23/01:00pm 14.9 13.6 9.9 72 2.6 N 7 11 4 6 1021.1 1021.1 0.0
23/12:30pm 14.4 12.7 10.0 75 2.3 N 9 15 5 8 1021.5 - 0.0
23/12:00pm 14.5 12.8 9.7 73 2.5 N 9 15 5 8 1022.0 1022.0 0.0
23/11:30am 13.6 11.6 10.0 79 1.9 NNE 11 19 6 10 1022.5 - 0.0
23/11:00am 13.4 11.3 9.6 78 1.9 NNE 11 17 6 9 1022.8 1022.8 0.0
23/10:30am 12.7 10.7 10.2 85 1.3 NNE 11 17 6 9 1023.0 - 0.0
23/10:00am 11.3 10.2 10.5 95 0.4 NNE 7 13 4 7 1023.7 1023.7 0.0
23/09:30am 10.7 9.0 9.8 94 0.5 NNE 9 11 5 6 1023.5 - 0.0
23/09:00am 10.7 9.4 10.1 96 0.3 ENE 7 11 4 6 1022.8 1022.8 5.6
23/08:30am 10.4 9.3 10.1 98 0.2 SE 6 7 3 4 1022.8 - 5.6
23/08:00am 9.9 8.8 9.8 99 0.0 SSE 6 7 3 4 1022.8 1022.8 5.6
23/07:30am 9.7 8.5 9.6 99 0.0 SSE 6 7 3 4 1022.7 - 5.6
23/07:00am 9.6 9.1 9.5 99 0.0 SSE 2 6 1 3 1022.3 1022.3 5.6
23/06:30am 9.4 9.3 9.3 99 0.0 CALM 0 0 0 0 1021.8 - 5.4
23/06:00am 9.1 8.8 8.8 98 0.1 CALM 0 6 0 3 1021.6 1021.6 5.4
23/05:30am 9.7 9.6 9.4 98 0.1 CALM 0 0 0 0 1021.5 - 5.4
23/05:00am 9.7 9.6 9.4 98 0.1 CALM 0 0 0 0 1021.4 1021.4 5.4
23/04:30am 9.5 9.3 9.2 98 0.1 CALM 0 0 0 0 1021.3 - 5.4
23/04:00am 9.5 9.3 9.2 98 0.1 CALM 0 0 0 0 1021.3 1021.3 5.4
23/03:30am 9.8 9.7 9.5 98 0.1 CALM 0 0 0 0 1021.6 - 5.4
23/03:00am 9.8 9.7 9.3 97 0.2 CALM 0 0 0 0 1021.8 1021.8 5.4
23/02:30am 9.7 9.5 9.2 97 0.2 CALM 0 7 0 4 1021.8 - 5.4
23/02:00am 9.8 9.6 9.2 96 0.3 CALM 0 0 0 0 1021.7 1021.7 5.4
23/01:30am 10.4 10.3 9.6 95 0.4 CALM 0 0 0 0 1021.5 - 5.4
23/01:00am 10.5 9.4 9.9 96 0.3 SSE 6 9 3 5 1021.6 1021.6 5.4
23/12:30am 10.3 10.3 9.7 96 0.3 CALM 0 0 0 0 1021.5 - 5.4
23/12:00am 10.5 10.5 9.7 95 0.4 CALM 0 6 0 3 1021.5 1021.5 5.4
 
Date/Time
WST
Temp
°C
App
Temp
°C
Dew
Point
Rel
Hum
%
Delta-T
°C
Wind Press
QNH
hPa
Press
MSL
hPa
Rain
since 9 am
mm
Dir
 
Spd
km/h
Gust
km/h
Spd
kts
Gust
kts
22/11:30pm 10.2 10.1 9.4 95 0.4 CALM 0 4 0 2 1021.6 - 5.4
22/11:00pm 10.6 10.6 9.7 94 0.5 CALM 0 6 0 3 1021.6 1021.6 5.0
22/10:30pm 11.2 10.4 9.8 91 0.7 SSE 4 7 2 4 1021.6 - 5.0
22/10:00pm 11.5 10.4 10.1 91 0.7 S 6 9 3 5 1021.4 1021.4 5.0
22/09:30pm 11.4 10.3 10.5 94 0.5 SW 7 13 4 7 1021.4 - 5.0
22/09:00pm 11.6 11.1 10.7 94 0.5 SSW 4 7 2 4 1021.3 1021.3 5.0
22/08:30pm 11.7 11.6 10.9 95 0.4 WSW 2 9 1 5 1021.2 - 4.0
22/08:00pm 11.7 10.9 10.9 95 0.4 WSW 6 13 3 7 1021.1 1021.1 4.0
22/07:30pm 11.8 10.0 10.9 94 0.5 SW 11 22 6 12 1020.8 - 3.8
22/07:00pm 11.8 10.0 10.7 93 0.6 SW 11 19 6 10 1020.2 1020.2 3.0
22/06:30pm 12.1 11.0 10.8 92 0.7 WSW 7 20 4 11 1020.1 - 2.4
22/06:00pm 11.9 9.6 10.5 91 0.7 SSW 13 17 7 9 1019.7 1019.7 2.2
22/05:30pm 12.0 10.1 10.6 91 0.7 SSW 11 19 6 10 1019.4 - 1.8
22/05:00pm 12.7 11.1 10.2 85 1.3 SW 9 15 5 8 1019.1 1019.1 1.6
22/04:30pm 13.3 9.5 9.7 79 1.8 SW 20 32 11 17 1018.8 - 1.6
22/04:00pm 14.8 11.5 8.1 64 3.3 SW 15 30 8 16 1018.2 1018.2 1.6
22/03:30pm 14.7 10.9 8.9 68 3.0 SSW 19 30 10 16 1017.9 - 1.6
22/03:00pm 15.3 12.9 8.8 65 3.3 W 11 19 6 10 1017.7 1017.7 1.6
22/02:30pm 14.3 12.9 10.9 80 1.8 WNW 9 15 5 8 1017.7 - 1.6
22/02:00pm 13.4 12.1 11.3 87 1.1 SW 9 15 5 8 1017.6 1017.6 1.4
22/01:30pm 12.8 11.2 10.3 85 1.3 SSW 9 15 5 8 1017.5 - 1.0
22/01:00pm 13.3 10.6 9.0 75 2.2 SW 13 22 7 12 1017.4 1017.4 0.6
22/12:30pm 13.7 11.1 9.4 75 2.2 SW 13 22 7 12 1017.6 - 0.6
22/12:00pm 13.6 11.8 9.3 75 2.2 SSW 9 17 5 9 1017.9 1017.9 0.6
22/11:30am 12.7 11.1 10.2 85 1.3 W 9 15 5 8 1018.3 - 0.6
22/11:00am 12.7 11.3 9.7 82 1.5 WNW 7 13 4 7 1018.6 1018.6 0.2
22/10:30am 12.9 11.8 9.9 82 1.5 SE 6 11 3 6 1018.3 - 0.2
22/10:00am 12.4 11.9 9.2 81 1.6 SSE 2 7 1 4 1018.2 1018.2 0.2
22/09:30am 11.4 10.3 8.6 83 1.4 SSE 4 6 2 3 1018.0 - 0.2
22/09:00am 11.7 11.5 8.9 83 1.4 CALM 0 6 0 3 1017.3 1017.3 26.6
22/08:30am 10.3 10.3 9.7 96 0.3 CALM 0 0 0 0 1017.1 - 26.6
22/08:00am 9.5 7.9 8.9 96 0.3 SE 7 17 4 9 1016.6 1016.6 26.6
22/07:30am 8.9 8.5 8.3 96 0.3 CALM 0 0 0 0 1016.4 - 26.6
22/07:00am 9.4 8.0 8.8 96 0.3 SE 6 9 3 5 1015.7 1015.7 26.6
22/06:30am 9.7 7.4 9.1 96 0.3 SSE 11 17 6 9 1015.6 - 26.4
22/06:00am 10.1 9.7 9.6 97 0.2 SSE 2 6 1 3 1015.2 1015.2 25.0
22/05:30am 10.0 8.6 9.4 96 0.3 SSE 7 11 4 6 1014.2 - 24.4
22/05:00am 10.2 8.5 9.7 97 0.3 S 9 15 5 8 1014.3 1014.3 24.4
22/04:30am 10.4 9.3 10.1 98 0.2 WNW 6 13 3 7 1014.1 - 24.2
22/04:00am 10.6 10.0 10.3 98 0.2 NNW 4 11 2 6 1013.8 1013.8 21.4
22/03:30am 10.5 9.5 10.2 98 0.2 N 6 13 3 7 1013.3 - 20.4
22/03:00am 10.5 9.5 10.2 98 0.2 SSE 6 9 3 5 1012.9 1012.9 19.8
22/02:30am 10.6 10.7 10.3 98 0.2 CALM 0 4 0 2 1013.0 - 19.8
22/02:00am 10.5 10.6 10.0 97 0.3 CALM 0 0 0 0 1012.5 1012.4 19.0
22/01:30am 10.6 8.9 10.0 96 0.3 S 9 15 5 8 1012.7 - 18.8
22/01:00am 11.1 7.7 10.6 97 0.3 SW 19 35 10 19 1013.3 1013.3 16.0
22/12:30am 11.6 12.0 11.3 98 0.2 CALM 0 6 0 3 1012.5 - 13.6
22/12:00am 11.7 11.0 11.4 98 0.2 SW 6 7 3 4 1012.6 1012.6 13.2
 
Date/Time
WST
Temp
°C
App
Temp
°C
Dew
Point
Rel
Hum
%
Delta-T
°C
Wind Press
QNH
hPa
Press
MSL
hPa
Rain
since 9 am
mm
Dir
 
Spd
km/h
Gust
km/h
Spd
kts
Gust
kts
21/11:30pm 11.9 12.3 11.4 97 0.3 CALM 0 4 0 2 1013.1 - 13.2
21/11:00pm 12.0 11.1 11.5 97 0.3 SW 7 13 4 7 1013.4 1013.4 13.0
21/10:30pm 12.0 11.2 11.7 98 0.2 N 7 13 4 7 1013.1 - 10.8
21/10:00pm 12.2 11.7 11.9 98 0.2 NNE 6 11 3 6 1013.5 1013.5 10.8
21/09:30pm 12.4 11.9 12.1 98 0.2 NE 6 9 3 5 1013.7 - 10.6
21/09:00pm 12.6 12.5 12.1 97 0.3 NE 4 7 2 4 1013.8 1013.8 10.2

Other Formats:

Comma delimited format used in spreadsheet applications
http://www.bom.gov.au/fwo/IDW60801/IDW60801.94608.axf

JavaScript Object Notation format (JSON) in row-major order
http://www.bom.gov.au/fwo/IDW60801/IDW60801.94608.json